Estación Meteorológica Peña el Pijo (Robertgarden) [ 06/24/18 10:38:51 CEST ]

Fecha Hora Presion(HPa) Temp (°C) Humedad % Rocio (°C) Viento ( m/s) Direccion Lluvia 1Hora(mm) Lluvia 24H(mm) LLuvia Total(mm)
2018-Feb-11 01:01:43 1009.100 -0.5 68 -5.7         76.66
2018-Feb-11 02:03:08 1008.700 -0.8 71 -5.4         76.66
2018-Feb-11 03:01:56 1008.700 -1.0 73 -5.3         76.66
2018-Feb-11 04:01:48 1008.700 -1.7 74 -5.7         76.66
2018-Feb-11 05:01:36 1008.300 -1.2 76 -4.9         76.66
2018-Feb-11 06:01:41 1008.600 -1.9 77 -5.4         76.66
2018-Feb-11 07:01:42 1008.600 -0.4 78 -3.8         76.66
2018-Feb-11 08:01:46 1009.100 2.0 73 -2.4         76.66
2018-Feb-11 09:01:46 1009.900 2.9 70 -2.0         76.66
2018-Feb-11 10:01:48 1010.400 7.5 60 0.2         76.66
2018-Feb-11 11:01:47 1010.400 8.1 56 -0.2         76.66
2018-Feb-11 12:01:47 1010.200 11.3 53 2.0         76.66
2018-Feb-11 13:01:51 1009.700 12.1 50 2.0 0.5 NNW     76.66
2018-Feb-11 14:01:47 1009.100 14.4 46 2.9         76.66
2018-Feb-11 15:01:37 1008.200 15.4 45 3.5         76.66
2018-Feb-11 16:01:40 1008.100 15.3 42 2.4         76.66
2018-Feb-11 17:01:42 1008.000 13.9 45 2.1         76.66
2018-Feb-11 18:01:32 1008.200 11.4 49 1.1         76.66
2018-Feb-11 19:01:32 1008.800 8.6 55 0.0         76.66
2018-Feb-11 20:01:47 1008.900 5.1 65 -1.0         76.66
2018-Feb-11 21:01:44 1009.200 3.5 70 -1.4         76.66
2018-Feb-11 22:01:40 1009.100 3.3 74 -0.9         76.66
2018-Feb-11 23:01:42 1009.300 6.6 74 2.3         76.66

Temperatura Máxima:15°    Temperatura Mínima:-1°
Presión Máxima:1010.400 Hpa    Presión Mínima:1008.000 Hpa


Volver